Lewiston, Michigan
Current Conditions -  °F | °C
As of 6:49 AM on Friday 31 Oct 2014 (Local Time) from KGLR Reporting Station
Light Snow Light Snow  
Wind Chill: -3°   Ceiling: 700
Heat Index:   Visibility: 2mi
Dew Point:   Wind: 10mph
Humidity: 93%   Direction: 30°NNE
Pressure: 29.91"   Gusts: 17mph
Location:  44.88°N, 84.31°W
Report Text: KGLR 311049Z AUTO 03009G15KT 2SM -SN BR BKN007 OVC011 01/00 A2991 RMK AO2 RAE30SNB30 P0002
Loading
Personal Weather Stations






























Interactive Weather Map
Tropical Storm Tracking
New forecast layout! Learn more

10-Day Weather Forecast

Advertisements
Track Severe Weather on mobile